sensor_id;sensor_type;location;lat;lon;timestamp;P1;durP1;ratioP1;P2;durP2;ratioP2
17670;SDS011;8954;48.694;8.940;2022-09-09T00:04:26;280.03;;;92.40;;
17670;SDS011;8954;48.694;8.940;2022-09-09T00:07:12;278.37;;;89.83;;
17670;SDS011;8954;48.694;8.940;2022-09-09T00:09:53;277.63;;;89.60;;
17670;SDS011;8954;48.694;8.940;2022-09-09T00:12:37;279.33;;;90.00;;
17670;SDS011;8954;48.694;8.940;2022-09-09T00:15:22;279.60;;;88.97;;
17670;SDS011;8954;48.694;8.940;2022-09-09T00:18:05;279.00;;;89.33;;
17670;SDS011;8954;48.694;8.940;2022-09-09T00:28:55;282.83;;;92.10;;
17670;SDS011;8954;48.694;8.940;2022-09-09T00:31:29;283.87;;;93.90;;
17670;SDS011;8954;48.694;8.940;2022-09-09T00:34:15;282.50;;;93.03;;
17670;SDS011;8954;48.694;8.940;2022-09-09T00:36:46;284.43;;;93.47;;
17670;SDS011;8954;48.694;8.940;2022-09-09T00:39:33;284.00;;;95.33;;
17670;SDS011;8954;48.694;8.940;2022-09-09T00:42:16;282.43;;;93.03;;
17670;SDS011;8954;48.694;8.940;2022-09-09T00:50:12;288.27;;;97.20;;
17670;SDS011;8954;48.694;8.940;2022-09-09T00:55:26;287.40;;;97.73;;
17670;SDS011;8954;48.694;8.940;2022-09-09T00:58:08;291.30;;;99.57;;
17670;SDS011;8954;48.694;8.940;2022-09-09T01:00:44;288.43;;;100.43;;
17670;SDS011;8954;48.694;8.940;2022-09-09T01:03:35;283.57;;;96.90;;
17670;SDS011;8954;48.694;8.940;2022-09-09T01:06:14;284.93;;;98.47;;
17670;SDS011;8954;48.694;8.940;2022-09-09T01:09:04;281.80;;;95.57;;
17670;SDS011;8954;48.694;8.940;2022-09-09T01:22:37;281.27;;;93.97;;
17670;SDS011;8954;48.694;8.940;2022-09-09T01:27:57;282.27;;;96.23;;
17670;SDS011;8954;48.694;8.940;2022-09-09T01:30:26;283.13;;;96.50;;
17670;SDS011;8954;48.694;8.940;2022-09-09T01:32:56;278.53;;;94.73;;
17670;SDS011;8954;48.694;8.940;2022-09-09T01:38:19;282.73;;;93.67;;
17670;SDS011;8954;48.694;8.940;2022-09-09T01:40:46;282.30;;;95.00;;
17670;SDS011;8954;48.694;8.940;2022-09-09T01:43:12;277.90;;;92.37;;
17670;SDS011;8954;48.694;8.940;2022-09-09T01:45:39;280.03;;;93.27;;
17670;SDS011;8954;48.694;8.940;2022-09-09T01:48:08;283.23;;;95.27;;
17670;SDS011;8954;48.694;8.940;2022-09-09T01:50:34;277.80;;;91.47;;
17670;SDS011;8954;48.694;8.940;2022-09-09T01:53:00;279.63;;;93.13;;
17670;SDS011;8954;48.694;8.940;2022-09-09T01:55:32;278.23;;;91.23;;
17670;SDS011;8954;48.694;8.940;2022-09-09T02:01:08;282.23;;;91.90;;
17670;SDS011;8954;48.694;8.940;2022-09-09T02:03:50;282.83;;;103.67;;
17670;SDS011;8954;48.694;8.940;2022-09-09T02:06:26;281.80;;;91.13;;
17670;SDS011;8954;48.694;8.940;2022-09-09T02:08:59;280.73;;;91.50;;
17670;SDS011;8954;48.694;8.940;2022-09-09T02:11:29;274.20;;;88.20;;
17670;SDS011;8954;48.694;8.940;2022-09-09T02:17:03;276.77;;;87.97;;
17670;SDS011;8954;48.694;8.940;2022-09-09T02:19:38;279.80;;;89.40;;
17670;SDS011;8954;48.694;8.940;2022-09-09T02:22:15;282.30;;;90.07;;
17670;SDS011;8954;48.694;8.940;2022-09-09T02:24:44;279.03;;;87.57;;
17670;SDS011;8954;48.694;8.940;2022-09-09T02:27:11;279.57;;;90.10;;
17670;SDS011;8954;48.694;8.940;2022-09-09T02:29:39;276.10;;;88.03;;
17670;SDS011;8954;48.694;8.940;2022-09-09T02:32:07;275.47;;;86.80;;
17670;SDS011;8954;48.694;8.940;2022-09-09T02:34:39;275.57;;;87.43;;
17670;SDS011;8954;48.694;8.940;2022-09-09T02:37:10;278.53;;;89.50;;
17670;SDS011;8954;48.694;8.940;2022-09-09T02:39:38;279.20;;;89.90;;
17670;SDS011;8954;48.694;8.940;2022-09-09T02:42:04;276.17;;;88.67;;
17670;SDS011;8954;48.694;8.940;2022-09-09T02:44:30;278.20;;;90.10;;
17670;SDS011;8954;48.694;8.940;2022-09-09T02:52:38;277.30;;;87.63;;
17670;SDS011;8954;48.694;8.940;2022-09-09T02:55:45;273.80;;;85.87;;
17670;SDS011;8954;48.694;8.940;2022-09-09T02:58:05;274.80;;;85.30;;
17670;SDS011;8954;48.694;8.940;2022-09-09T03:00:34;271.87;;;85.77;;
17670;SDS011;8954;48.694;8.940;2022-09-09T03:03:01;272.47;;;85.83;;
17670;SDS011;8954;48.694;8.940;2022-09-09T03:05:31;276.07;;;86.20;;
17670;SDS011;8954;48.694;8.940;2022-09-09T03:07:57;273.40;;;84.50;;
17670;SDS011;8954;48.694;8.940;2022-09-09T03:10:23;275.47;;;85.83;;
17670;SDS011;8954;48.694;8.940;2022-09-09T03:12:49;275.23;;;86.43;;
17670;SDS011;8954;48.694;8.940;2022-09-09T03:15:15;274.30;;;85.13;;
17670;SDS011;8954;48.694;8.940;2022-09-09T03:17:42;273.53;;;85.57;;
17670;SDS011;8954;48.694;8.940;2022-09-09T03:20:07;273.13;;;85.77;;
17670;SDS011;8954;48.694;8.940;2022-09-09T03:22:34;273.47;;;85.20;;
17670;SDS011;8954;48.694;8.940;2022-09-09T03:25:00;271.37;;;85.00;;
17670;SDS011;8954;48.694;8.940;2022-09-09T03:27:28;276.80;;;85.80;;
17670;SDS011;8954;48.694;8.940;2022-09-09T03:29:54;272.37;;;83.97;;
17670;SDS011;8954;48.694;8.940;2022-09-09T03:32:21;271.60;;;83.00;;
17670;SDS011;8954;48.694;8.940;2022-09-09T03:34:47;274.30;;;85.03;;
17670;SDS011;8954;48.694;8.940;2022-09-09T03:37:15;275.23;;;85.33;;
17670;SDS011;8954;48.694;8.940;2022-09-09T03:39:42;273.30;;;85.07;;
17670;SDS011;8954;48.694;8.940;2022-09-09T03:42:08;271.70;;;85.40;;
17670;SDS011;8954;48.694;8.940;2022-09-09T03:44:37;274.57;;;86.30;;
17670;SDS011;8954;48.694;8.940;2022-09-09T03:47:03;272.80;;;85.43;;
17670;SDS011;8954;48.694;8.940;2022-09-09T03:49:28;259.23;;;85.43;;
17670;SDS011;8954;48.694;8.940;2022-09-09T03:51:55;265.20;;;85.53;;
17670;SDS011;8954;48.694;8.940;2022-09-09T03:54:23;273.07;;;88.27;;
17670;SDS011;8954;48.694;8.940;2022-09-09T03:56:49;272.07;;;83.90;;
17670;SDS011;8954;48.694;8.940;2022-09-09T03:59:15;271.30;;;84.37;;
17670;SDS011;8954;48.694;8.940;2022-09-09T04:01:41;272.13;;;84.30;;
17670;SDS011;8954;48.694;8.940;2022-09-09T04:04:07;274.93;;;84.80;;
17670;SDS011;8954;48.694;8.940;2022-09-09T04:06:34;275.43;;;85.33;;
17670;SDS011;8954;48.694;8.940;2022-09-09T04:09:00;271.87;;;83.03;;
17670;SDS011;8954;48.694;8.940;2022-09-09T04:11:28;274.97;;;84.83;;
17670;SDS011;8954;48.694;8.940;2022-09-09T04:13:54;276.23;;;84.40;;
17670;SDS011;8954;48.694;8.940;2022-09-09T04:16:20;276.23;;;85.43;;
17670;SDS011;8954;48.694;8.940;2022-09-09T04:18:46;270.20;;;81.67;;
17670;SDS011;8954;48.694;8.940;2022-09-09T04:21:18;275.00;;;83.30;;
17670;SDS011;8954;48.694;8.940;2022-09-09T04:23:44;273.70;;;83.73;;
17670;SDS011;8954;48.694;8.940;2022-09-09T04:26:10;278.13;;;86.07;;
17670;SDS011;8954;48.694;8.940;2022-09-09T04:28:36;273.20;;;83.80;;
17670;SDS011;8954;48.694;8.940;2022-09-09T04:31:06;275.80;;;84.53;;
17670;SDS011;8954;48.694;8.940;2022-09-09T04:33:34;280.03;;;87.73;;
17670;SDS011;8954;48.694;8.940;2022-09-09T04:36:00;267.17;;;85.80;;
17670;SDS011;8954;48.694;8.940;2022-09-09T04:38:26;277.67;;;85.93;;
17670;SDS011;8954;48.694;8.940;2022-09-09T04:40:52;274.93;;;85.20;;
17670;SDS011;8954;48.694;8.940;2022-09-09T04:43:19;269.93;;;83.37;;
17670;SDS011;8954;48.694;8.940;2022-09-09T04:45:49;273.90;;;84.20;;
17670;SDS011;8954;48.694;8.940;2022-09-09T04:48:19;278.03;;;85.63;;
17670;SDS011;8954;48.694;8.940;2022-09-09T04:50:55;248.07;;;86.07;;
17670;SDS011;8954;48.694;8.940;2022-09-09T04:53:30;275.57;;;84.70;;
17670;SDS011;8954;48.694;8.940;2022-09-09T04:56:10;274.40;;;84.47;;
17670;SDS011;8954;48.694;8.940;2022-09-09T04:58:37;276.53;;;84.60;;
17670;SDS011;8954;48.694;8.940;2022-09-09T05:01:08;276.20;;;86.37;;
17670;SDS011;8954;48.694;8.940;2022-09-09T05:03:42;275.40;;;85.67;;
17670;SDS011;8954;48.694;8.940;2022-09-09T05:06:10;275.93;;;87.07;;
17670;SDS011;8954;48.694;8.940;2022-09-09T05:08:38;278.43;;;89.87;;
17670;SDS011;8954;48.694;8.940;2022-09-09T05:11:15;278.73;;;89.47;;
17670;SDS011;8954;48.694;8.940;2022-09-09T05:13:43;280.20;;;89.97;;
17670;SDS011;8954;48.694;8.940;2022-09-09T05:16:09;277.33;;;89.27;;
17670;SDS011;8954;48.694;8.940;2022-09-09T05:18:36;279.40;;;91.30;;
17670;SDS011;8954;48.694;8.940;2022-09-09T05:21:07;280.20;;;91.93;;
17670;SDS011;8954;48.694;8.940;2022-09-09T05:23:33;279.73;;;92.17;;
17670;SDS011;8954;48.694;8.940;2022-09-09T05:25:59;278.93;;;93.17;;
17670;SDS011;8954;48.694;8.940;2022-09-09T05:28:26;282.00;;;94.37;;
17670;SDS011;8954;48.694;8.940;2022-09-09T05:30:59;281.80;;;94.73;;
17670;SDS011;8954;48.694;8.940;2022-09-09T05:33:29;280.57;;;94.23;;
17670;SDS011;8954;48.694;8.940;2022-09-09T05:35:56;282.13;;;95.77;;
17670;SDS011;8954;48.694;8.940;2022-09-09T05:38:26;282.80;;;96.13;;
17670;SDS011;8954;48.694;8.940;2022-09-09T05:40:53;278.50;;;94.63;;
17670;SDS011;8954;48.694;8.940;2022-09-09T05:43:19;284.07;;;99.03;;
17670;SDS011;8954;48.694;8.940;2022-09-09T05:45:46;284.80;;;98.13;;
17670;SDS011;8954;48.694;8.940;2022-09-09T05:48:13;283.17;;;96.80;;
17670;SDS011;8954;48.694;8.940;2022-09-09T05:50:41;292.33;;;100.10;;
17670;SDS011;8954;48.694;8.940;2022-09-09T05:53:08;282.90;;;96.13;;
17670;SDS011;8954;48.694;8.940;2022-09-09T05:55:35;283.53;;;96.67;;
17670;SDS011;8954;48.694;8.940;2022-09-09T05:58:00;287.87;;;99.17;;
17670;SDS011;8954;48.694;8.940;2022-09-09T06:00:26;289.03;;;99.00;;
17670;SDS011;8954;48.694;8.940;2022-09-09T06:02:52;290.90;;;100.13;;
17670;SDS011;8954;48.694;8.940;2022-09-09T06:05:19;289.20;;;96.57;;
17670;SDS011;8954;48.694;8.940;2022-09-09T06:07:45;294.13;;;99.13;;
17670;SDS011;8954;48.694;8.940;2022-09-09T06:10:11;290.37;;;98.23;;
17670;SDS011;8954;48.694;8.940;2022-09-09T06:12:40;289.90;;;99.40;;
17670;SDS011;8954;48.694;8.940;2022-09-09T06:15:05;290.17;;;100.07;;
17670;SDS011;8954;48.694;8.940;2022-09-09T06:17:34;289.77;;;99.87;;
17670;SDS011;8954;48.694;8.940;2022-09-09T06:19:59;291.87;;;102.13;;
17670;SDS011;8954;48.694;8.940;2022-09-09T06:22:25;291.40;;;103.83;;
17670;SDS011;8954;48.694;8.940;2022-09-09T06:24:51;290.90;;;103.13;;
17670;SDS011;8954;48.694;8.940;2022-09-09T06:27:18;291.40;;;103.43;;
17670;SDS011;8954;48.694;8.940;2022-09-09T06:29:45;291.87;;;103.23;;
17670;SDS011;8954;48.694;8.940;2022-09-09T06:32:11;288.23;;;102.53;;
17670;SDS011;8954;48.694;8.940;2022-09-09T06:34:37;287.80;;;101.80;;
17670;SDS011;8954;48.694;8.940;2022-09-09T06:37:02;291.30;;;101.93;;
17670;SDS011;8954;48.694;8.940;2022-09-09T06:39:29;291.40;;;102.30;;
17670;SDS011;8954;48.694;8.940;2022-09-09T06:41:56;295.17;;;105.83;;
17670;SDS011;8954;48.694;8.940;2022-09-09T06:44:23;294.00;;;106.03;;
17670;SDS011;8954;48.694;8.940;2022-09-09T06:46:51;293.43;;;105.23;;
17670;SDS011;8954;48.694;8.940;2022-09-09T06:49:17;288.97;;;104.23;;
17670;SDS011;8954;48.694;8.940;2022-09-09T06:51:43;280.60;;;106.63;;
17670;SDS011;8954;48.694;8.940;2022-09-09T06:54:09;289.83;;;108.73;;
17670;SDS011;8954;48.694;8.940;2022-09-09T06:56:37;294.53;;;112.47;;
17670;SDS011;8954;48.694;8.940;2022-09-09T06:59:07;294.10;;;111.20;;
17670;SDS011;8954;48.694;8.940;2022-09-09T07:01:38;293.60;;;112.70;;
17670;SDS011;8954;48.694;8.940;2022-09-09T07:04:14;300.83;;;114.37;;
17670;SDS011;8954;48.694;8.940;2022-09-09T07:06:44;283.47;;;132.73;;
17670;SDS011;8954;48.694;8.940;2022-09-09T07:09:12;302.57;;;121.03;;
17670;SDS011;8954;48.694;8.940;2022-09-09T07:11:43;0.00;;;0.00;;
17670;SDS011;8954;48.694;8.940;2022-09-09T07:14:14;0.00;;;0.00;;
17670;SDS011;8954;48.694;8.940;2022-09-09T07:16:44;0.00;;;0.00;;
17670;SDS011;8954;48.694;8.940;2022-09-09T07:19:11;0.00;;;0.00;;
17670;SDS011;8954;48.694;8.940;2022-09-09T07:21:39;0.00;;;0.00;;
17670;SDS011;8954;48.694;8.940;2022-09-09T07:24:07;0.00;;;0.00;;
17670;SDS011;8954;48.694;8.940;2022-09-09T07:26:35;0.00;;;0.00;;
17670;SDS011;8954;48.694;8.940;2022-09-09T07:29:03;0.00;;;0.00;;
17670;SDS011;8954;48.694;8.940;2022-09-09T07:31:30;0.00;;;0.00;;
17670;SDS011;8954;48.694;8.940;2022-09-09T07:33:58;0.00;;;0.00;;
17670;SDS011;8954;48.694;8.940;2022-09-09T07:36:26;0.00;;;0.00;;
17670;SDS011;8954;48.694;8.940;2022-09-09T07:38:54;0.00;;;0.00;;
17670;SDS011;8954;48.694;8.940;2022-09-09T07:41:23;0.00;;;0.00;;
17670;SDS011;8954;48.694;8.940;2022-09-09T07:43:52;0.00;;;0.00;;
17670;SDS011;8954;48.694;8.940;2022-09-09T07:46:21;0.00;;;0.00;;
17670;SDS011;8954;48.694;8.940;2022-09-09T07:48:52;0.00;;;0.00;;
17670;SDS011;8954;48.694;8.940;2022-09-09T07:51:22;0.00;;;0.00;;
17670;SDS011;8954;48.694;8.940;2022-09-09T07:53:54;0.00;;;0.00;;
17670;SDS011;8954;48.694;8.940;2022-09-09T07:56:25;1.90;;;1.80;;
17670;SDS011;8954;48.694;8.940;2022-09-09T07:58:52;0.00;;;0.00;;
17670;SDS011;8954;48.694;8.940;2022-09-09T08:01:25;2.25;;;2.08;;
17670;SDS011;8954;48.694;8.940;2022-09-09T08:03:59;346.77;;;327.27;;
17670;SDS011;8954;48.694;8.940;2022-09-09T08:06:28;468.33;;;437.20;;
17670;SDS011;8954;48.694;8.940;2022-09-09T08:08:57;462.65;;;433.55;;
17670;SDS011;8954;48.694;8.940;2022-09-09T08:11:25;477.80;;;448.45;;
17670;SDS011;8954;48.694;8.940;2022-09-09T08:13:53;485.75;;;456.70;;
17670;SDS011;8954;48.694;8.940;2022-09-09T08:16:21;530.55;;;494.90;;
17670;SDS011;8954;48.694;8.940;2022-09-09T08:18:50;534.42;;;496.35;;
17670;SDS011;8954;48.694;8.940;2022-09-09T08:21:20;513.78;;;475.40;;
17670;SDS011;8954;48.694;8.940;2022-09-09T08:23:53;465.60;;;427.15;;
17670;SDS011;8954;48.694;8.940;2022-09-09T08:26:21;442.55;;;404.95;;
17670;SDS011;8954;48.694;8.940;2022-09-09T08:28:50;35.38;;;16.75;;
17670;SDS011;8954;48.694;8.940;2022-09-09T08:31:18;0.00;;;0.00;;
17670;SDS011;8954;48.694;8.940;2022-09-09T08:33:46;0.00;;;0.00;;
17670;SDS011;8954;48.694;8.940;2022-09-09T08:36:18;0.00;;;0.00;;
17670;SDS011;8954;48.694;8.940;2022-09-09T08:38:50;0.00;;;0.00;;
17670;SDS011;8954;48.694;8.940;2022-09-09T08:41:25;0.00;;;0.00;;
17670;SDS011;8954;48.694;8.940;2022-09-09T08:44:25;0.00;;;0.00;;
17670;SDS011;8954;48.694;8.940;2022-09-09T08:50:11;0.00;;;0.00;;
17670;SDS011;8954;48.694;8.940;2022-09-09T08:52:51;398.30;;;362.23;;
17670;SDS011;8954;48.694;8.940;2022-09-09T08:55:33;346.13;;;313.42;;
17670;SDS011;8954;48.694;8.940;2022-09-09T08:58:09;441.10;;;416.23;;
17670;SDS011;8954;48.694;8.940;2022-09-09T09:03:28;297.50;;;214.07;;
17670;SDS011;8954;48.694;8.940;2022-09-09T09:09:02;292.47;;;180.93;;
17670;SDS011;8954;48.694;8.940;2022-09-09T09:11:48;232.77;;;212.80;;
17670;SDS011;8954;48.694;8.940;2022-09-09T09:14:26;279.50;;;161.37;;
17670;SDS011;8954;48.694;8.940;2022-09-09T09:17:06;209.70;;;191.32;;
17670;SDS011;8954;48.694;8.940;2022-09-09T09:19:35;245.27;;;174.57;;
17670;SDS011;8954;48.694;8.940;2022-09-09T09:22:06;227.35;;;197.40;;
17670;SDS011;8954;48.694;8.940;2022-09-09T09:24:41;270.95;;;245.43;;
17670;SDS011;8954;48.694;8.940;2022-09-09T09:27:16;205.98;;;187.75;;
17670;SDS011;8954;48.694;8.940;2022-09-09T09:30:20;1.10;;;1.00;;
17670;SDS011;8954;48.694;8.940;2022-09-09T09:33:11;449.63;;;425.80;;
17670;SDS011;8954;48.694;8.940;2022-09-09T09:35:48;423.02;;;406.85;;
17670;SDS011;8954;48.694;8.940;2022-09-09T09:40:53;461.15;;;437.75;;
17670;SDS011;8954;48.694;8.940;2022-09-09T09:43:32;407.70;;;388.00;;
17670;SDS011;8954;48.694;8.940;2022-09-09T09:46:00;373.63;;;355.38;;
17670;SDS011;8954;48.694;8.940;2022-09-09T09:48:28;218.15;;;209.23;;
17670;SDS011;8954;48.694;8.940;2022-09-09T09:51:16;417.63;;;397.27;;
17670;SDS011;8954;48.694;8.940;2022-09-09T09:53:42;203.60;;;195.03;;
17670;SDS011;8954;48.694;8.940;2022-09-09T09:56:09;301.63;;;289.37;;
17670;SDS011;8954;48.694;8.940;2022-09-09T10:01:27;581.17;;;551.03;;
17670;SDS011;8954;48.694;8.940;2022-09-09T10:03:57;503.60;;;478.15;;
17670;SDS011;8954;48.694;8.940;2022-09-09T10:06:35;516.78;;;490.80;;
17670;SDS011;8954;48.694;8.940;2022-09-09T10:09:03;440.52;;;423.05;;
17670;SDS011;8954;48.694;8.940;2022-09-09T10:14:48;407.50;;;391.52;;
17670;SDS011;8954;48.694;8.940;2022-09-09T10:17:57;602.78;;;570.33;;
17670;SDS011;8954;48.694;8.940;2022-09-09T10:22:52;593.70;;;561.33;;
17670;SDS011;8954;48.694;8.940;2022-09-09T10:31:43;620.63;;;584.38;;
17670;SDS011;8954;48.694;8.940;2022-09-09T10:37:29;619.50;;;583.38;;
17670;SDS011;8954;48.694;8.940;2022-09-09T10:40:26;639.17;;;598.53;;
17670;SDS011;8954;48.694;8.940;2022-09-09T10:54:11;559.15;;;518.63;;
17670;SDS011;8954;48.694;8.940;2022-09-09T10:56:44;526.58;;;484.38;;
17670;SDS011;8954;48.694;8.940;2022-09-09T10:59:19;508.27;;;465.95;;
17670;SDS011;8954;48.694;8.940;2022-09-09T11:04:22;444.08;;;402.88;;
17670;SDS011;8954;48.694;8.940;2022-09-09T11:06:59;412.42;;;372.35;;
17670;SDS011;8954;48.694;8.940;2022-09-09T11:09:32;514.20;;;479.92;;
17670;SDS011;8954;48.694;8.940;2022-09-09T11:12:03;365.50;;;325.88;;
17670;SDS011;8954;48.694;8.940;2022-09-09T11:14:42;351.92;;;291.15;;
17670;SDS011;8954;48.694;8.940;2022-09-09T11:17:21;341.60;;;257.50;;
17670;SDS011;8954;48.694;8.940;2022-09-09T11:19:53;418.23;;;385.65;;
17670;SDS011;8954;48.694;8.940;2022-09-09T11:24:53;336.02;;;224.68;;
17670;SDS011;8954;48.694;8.940;2022-09-09T11:27:26;320.45;;;291.88;;
17670;SDS011;8954;48.694;8.940;2022-09-09T11:30:15;330.10;;;217.27;;
17670;SDS011;8954;48.694;8.940;2022-09-09T11:41:42;322.27;;;186.03;;
17670;SDS011;8954;48.694;8.940;2022-09-09T11:44:12;275.98;;;206.90;;
17670;SDS011;8954;48.694;8.940;2022-09-09T11:46:43;310.77;;;184.93;;
17670;SDS011;8954;48.694;8.940;2022-09-09T11:49:28;279.90;;;255.27;;
17670;SDS011;8954;48.694;8.940;2022-09-09T11:52:25;311.85;;;207.27;;
17670;SDS011;8954;48.694;8.940;2022-09-09T11:55:11;309.50;;;223.75;;
17670;SDS011;8954;48.694;8.940;2022-09-09T12:00:37;392.63;;;354.52;;
17670;SDS011;8954;48.694;8.940;2022-09-09T12:03:54;390.20;;;350.90;;
17670;SDS011;8954;48.694;8.940;2022-09-09T12:05:57;399.30;;;359.63;;
17670;SDS011;8954;48.694;8.940;2022-09-09T12:08:29;399.65;;;359.48;;
17670;SDS011;8954;48.694;8.940;2022-09-09T12:10:57;391.98;;;352.65;;
17670;SDS011;8954;48.694;8.940;2022-09-09T12:13:28;388.08;;;348.65;;
17670;SDS011;8954;48.694;8.940;2022-09-09T12:15:56;529.63;;;496.58;;
17670;SDS011;8954;48.694;8.940;2022-09-09T12:21:23;387.25;;;346.95;;
17670;SDS011;8954;48.694;8.940;2022-09-09T12:24:11;371.48;;;331.45;;
17670;SDS011;8954;48.694;8.940;2022-09-09T12:32:35;358.05;;;290.60;;
17670;SDS011;8954;48.694;8.940;2022-09-09T12:35:03;341.58;;;273.10;;
17670;SDS011;8954;48.694;8.940;2022-09-09T12:37:44;345.38;;;275.02;;
17670;SDS011;8954;48.694;8.940;2022-09-09T12:40:22;348.27;;;273.30;;
17670;SDS011;8954;48.694;8.940;2022-09-09T12:42:50;348.15;;;267.98;;
17670;SDS011;8954;48.694;8.940;2022-09-09T12:45:18;341.35;;;258.17;;
17670;SDS011;8954;48.694;8.940;2022-09-09T12:47:51;339.33;;;257.85;;
17670;SDS011;8954;48.694;8.940;2022-09-09T12:52:56;494.13;;;462.33;;
17670;SDS011;8954;48.694;8.940;2022-09-09T12:55:35;394.55;;;354.55;;
17670;SDS011;8954;48.694;8.940;2022-09-09T12:58:04;466.90;;;431.45;;
17670;SDS011;8954;48.694;8.940;2022-09-09T13:00:33;410.05;;;369.35;;
17670;SDS011;8954;48.694;8.940;2022-09-09T13:03:00;397.05;;;357.02;;
17670;SDS011;8954;48.694;8.940;2022-09-09T13:05:41;549.63;;;515.22;;
17670;SDS011;8954;48.694;8.940;2022-09-09T13:08:12;445.48;;;403.55;;
17670;SDS011;8954;48.694;8.940;2022-09-09T13:10:46;503.58;;;466.05;;
17670;SDS011;8954;48.694;8.940;2022-09-09T13:13:29;418.65;;;377.65;;
17670;SDS011;8954;48.694;8.940;2022-09-09T13:16:06;444.30;;;404.38;;
17670;SDS011;8954;48.694;8.940;2022-09-09T13:18:44;421.15;;;380.05;;
17670;SDS011;8954;48.694;8.940;2022-09-09T13:21:11;424.42;;;383.02;;
17670;SDS011;8954;48.694;8.940;2022-09-09T13:23:38;428.58;;;387.02;;
17670;SDS011;8954;48.694;8.940;2022-09-09T13:26:05;428.42;;;387.15;;
17670;SDS011;8954;48.694;8.940;2022-09-09T13:28:46;431.08;;;389.67;;
17670;SDS011;8954;48.694;8.940;2022-09-09T13:34:10;420.67;;;379.13;;
17670;SDS011;8954;48.694;8.940;2022-09-09T13:36:38;420.50;;;378.88;;
17670;SDS011;8954;48.694;8.940;2022-09-09T13:39:16;419.83;;;378.35;;
17670;SDS011;8954;48.694;8.940;2022-09-09T13:41:44;413.48;;;371.88;;
17670;SDS011;8954;48.694;8.940;2022-09-09T13:44:20;408.48;;;367.38;;
17670;SDS011;8954;48.694;8.940;2022-09-09T13:49:45;397.10;;;356.15;;
17670;SDS011;8954;48.694;8.940;2022-09-09T13:52:12;405.80;;;364.80;;
17670;SDS011;8954;48.694;8.940;2022-09-09T13:54:41;389.95;;;348.85;;
17670;SDS011;8954;48.694;8.940;2022-09-09T13:57:17;383.92;;;343.42;;
17670;SDS011;8954;48.694;8.940;2022-09-09T13:59:46;381.38;;;340.60;;
17670;SDS011;8954;48.694;8.940;2022-09-09T14:02:14;379.33;;;338.67;;
17670;SDS011;8954;48.694;8.940;2022-09-09T14:04:41;379.17;;;338.55;;
17670;SDS011;8954;48.694;8.940;2022-09-09T14:07:11;379.27;;;338.73;;
17670;SDS011;8954;48.694;8.940;2022-09-09T14:09:40;374.90;;;334.50;;
17670;SDS011;8954;48.694;8.940;2022-09-09T14:12:10;368.65;;;328.25;;
17670;SDS011;8954;48.694;8.940;2022-09-09T14:14:36;367.33;;;327.13;;
17670;SDS011;8954;48.694;8.940;2022-09-09T14:17:03;363.40;;;323.23;;
17670;SDS011;8954;48.694;8.940;2022-09-09T14:19:29;366.30;;;326.63;;
17670;SDS011;8954;48.694;8.940;2022-09-09T14:21:59;381.10;;;340.77;;
17670;SDS011;8954;48.694;8.940;2022-09-09T14:24:26;384.35;;;343.90;;
17670;SDS011;8954;48.694;8.940;2022-09-09T14:26:52;390.48;;;349.88;;
17670;SDS011;8954;48.694;8.940;2022-09-09T14:29:21;400.52;;;359.58;;
17670;SDS011;8954;48.694;8.940;2022-09-09T14:31:47;392.98;;;352.33;;
17670;SDS011;8954;48.694;8.940;2022-09-09T14:34:13;396.85;;;355.95;;
17670;SDS011;8954;48.694;8.940;2022-09-09T14:36:39;385.67;;;345.13;;
17670;SDS011;8954;48.694;8.940;2022-09-09T14:39:06;389.67;;;348.67;;
17670;SDS011;8954;48.694;8.940;2022-09-09T14:41:32;379.48;;;338.58;;
17670;SDS011;8954;48.694;8.940;2022-09-09T14:43:58;368.70;;;328.20;;
17670;SDS011;8954;48.694;8.940;2022-09-09T14:46:24;361.92;;;315.00;;
17670;SDS011;8954;48.694;8.940;2022-09-09T14:48:51;358.45;;;303.35;;
17670;SDS011;8954;48.694;8.940;2022-09-09T14:51:18;361.67;;;307.30;;
17670;SDS011;8954;48.694;8.940;2022-09-09T14:53:52;358.02;;;296.05;;
17670;SDS011;8954;48.694;8.940;2022-09-09T14:56:19;356.35;;;288.35;;
17670;SDS011;8954;48.694;8.940;2022-09-09T14:58:48;356.20;;;272.92;;
17670;SDS011;8954;48.694;8.940;2022-09-09T15:01:15;354.35;;;261.33;;
17670;SDS011;8954;48.694;8.940;2022-09-09T15:03:48;349.52;;;251.32;;
17670;SDS011;8954;48.694;8.940;2022-09-09T15:06:18;348.00;;;250.40;;
17670;SDS011;8954;48.694;8.940;2022-09-09T15:08:46;343.92;;;233.02;;
17670;SDS011;8954;48.694;8.940;2022-09-09T15:11:15;343.50;;;232.43;;
17670;SDS011;8954;48.694;8.940;2022-09-09T15:13:41;375.30;;;340.63;;
17670;SDS011;8954;48.694;8.940;2022-09-09T15:16:09;348.45;;;245.52;;
17670;SDS011;8954;48.694;8.940;2022-09-09T15:18:38;341.83;;;224.32;;
17670;SDS011;8954;48.694;8.940;2022-09-09T15:21:15;342.45;;;217.00;;
17670;SDS011;8954;48.694;8.940;2022-09-09T15:23:42;342.57;;;211.20;;
17670;SDS011;8954;48.694;8.940;2022-09-09T15:26:08;341.17;;;208.17;;
17670;SDS011;8954;48.694;8.940;2022-09-09T15:28:35;340.77;;;201.53;;
17670;SDS011;8954;48.694;8.940;2022-09-09T15:31:09;337.80;;;195.10;;
17670;SDS011;8954;48.694;8.940;2022-09-09T15:33:39;335.23;;;187.60;;
17670;SDS011;8954;48.694;8.940;2022-09-09T15:36:22;333.97;;;179.03;;
17670;SDS011;8954;48.694;8.940;2022-09-09T15:38:50;335.77;;;173.87;;
17670;SDS011;8954;48.694;8.940;2022-09-09T15:41:17;330.13;;;170.03;;
17670;SDS011;8954;48.694;8.940;2022-09-09T15:43:45;328.30;;;164.77;;
17670;SDS011;8954;48.694;8.940;2022-09-09T15:48:55;329.57;;;164.03;;
17670;SDS011;8954;48.694;8.940;2022-09-09T15:51:24;324.07;;;157.13;;
17670;SDS011;8954;48.694;8.940;2022-09-09T15:53:54;326.97;;;157.20;;
17670;SDS011;8954;48.694;8.940;2022-09-09T15:56:22;329.83;;;162.83;;
17670;SDS011;8954;48.694;8.940;2022-09-09T15:58:49;324.67;;;158.77;;
17670;SDS011;8954;48.694;8.940;2022-09-09T16:01:16;327.17;;;161.20;;
17670;SDS011;8954;48.694;8.940;2022-09-09T16:03:44;320.37;;;153.70;;
17670;SDS011;8954;48.694;8.940;2022-09-09T16:06:12;326.93;;;160.73;;
17670;SDS011;8954;48.694;8.940;2022-09-09T16:08:40;322.63;;;158.77;;
17670;SDS011;8954;48.694;8.940;2022-09-09T16:11:26;324.93;;;158.20;;
17670;SDS011;8954;48.694;8.940;2022-09-09T16:14:06;320.97;;;154.60;;
17670;SDS011;8954;48.694;8.940;2022-09-09T16:16:32;326.30;;;156.97;;
17670;SDS011;8954;48.694;8.940;2022-09-09T16:19:02;324.47;;;157.13;;
17670;SDS011;8954;48.694;8.940;2022-09-09T16:21:32;327.17;;;158.40;;
17670;SDS011;8954;48.694;8.940;2022-09-09T16:24:00;328.13;;;162.87;;
17670;SDS011;8954;48.694;8.940;2022-09-09T16:26:31;325.00;;;156.73;;
17670;SDS011;8954;48.694;8.940;2022-09-09T16:29:00;319.83;;;149.70;;
17670;SDS011;8954;48.694;8.940;2022-09-09T16:31:27;317.17;;;157.37;;
17670;SDS011;8954;48.694;8.940;2022-09-09T16:33:54;317.47;;;156.00;;
17670;SDS011;8954;48.694;8.940;2022-09-09T16:36:21;324.33;;;154.67;;
17670;SDS011;8954;48.694;8.940;2022-09-09T16:38:51;315.90;;;152.57;;
17670;SDS011;8954;48.694;8.940;2022-09-09T16:41:22;321.43;;;151.23;;
17670;SDS011;8954;48.694;8.940;2022-09-09T16:43:55;323.93;;;153.33;;
17670;SDS011;8954;48.694;8.940;2022-09-09T16:46:23;321.17;;;149.33;;